UAE853 OMDB-OKKK
Flight info
| Callsign | UAE853 |
|---|---|
| Flight time | 1h 9m |
| Altitude | 34000 |
| Route | RIDAP M557 TUMAK M600 KUMBO A453 DEBTI |
| Aircraft | B77W/H-SDE1E2E3FGHIJ2J3J4J5M1RWXY/LB1D1 |
Departure
| Time | 2026-04-20 14:04 |
|---|---|
| Airport | Dubai International Airport (OMDB) |
Arrival
| Time | 2026-04-20 15:13 |
|---|---|
| Airport | Kuwait International Airport (OKKK) |
| Time | Latitude | Longitude | Altitude | Speed | Heading |
|---|---|---|---|---|---|
| 2026-04-20 13:31 | 25.24967 | 55.36143 | 29 ft | 0 kts | 212° |
| 2026-04-20 13:46 | 25.24968 | 55.36144 | 26 ft | 1 kts | 212° |
| 2026-04-20 13:46 | 25.24981 | 55.36153 | 32 ft | 3 kts | 212° |
| 2026-04-20 13:46 | 25.24999 | 55.36165 | 28 ft | 3 kts | 212° |
| 2026-04-20 13:46 | 25.25016 | 55.36176 | 22 ft | 3 kts | 212° |
| 2026-04-20 13:47 | 25.25029 | 55.36185 | 25 ft | 2 kts | 213° |
| 2026-04-20 13:47 | 25.25042 | 55.36197 | 25 ft | 3 kts | 253° |
| 2026-04-20 13:47 | 25.25042 | 55.36215 | 23 ft | 3 kts | 300° |
| 2026-04-20 13:47 | 25.25035 | 55.36227 | 23 ft | 0 kts | 304° |
| 2026-04-20 13:52 | 25.25039 | 55.36220 | 23 ft | 6 kts | 303° |
| 2026-04-20 13:52 | 25.25088 | 55.36135 | 26 ft | 15 kts | 301° |
| 2026-04-20 13:53 | 25.25145 | 55.36031 | 26 ft | 15 kts | 301° |
| 2026-04-20 13:53 | 25.25202 | 55.35929 | 29 ft | 15 kts | 302° |
| 2026-04-20 13:53 | 25.25251 | 55.35843 | 29 ft | 12 kts | 302° |
| 2026-04-20 13:53 | 25.25297 | 55.35762 | 28 ft | 12 kts | 302° |
| 2026-04-20 13:54 | 25.25344 | 55.35680 | 29 ft | 13 kts | 302° |
| 2026-04-20 13:54 | 25.25393 | 55.35594 | 29 ft | 14 kts | 302° |
| 2026-04-20 13:54 | 25.25443 | 55.35501 | 31 ft | 15 kts | 301° |
| 2026-04-20 13:54 | 25.25498 | 55.35401 | 29 ft | 16 kts | 302° |
| 2026-04-20 13:55 | 25.25558 | 55.35298 | 32 ft | 16 kts | 302° |
| 2026-04-20 13:55 | 25.25615 | 55.35195 | 29 ft | 14 kts | 301° |
| 2026-04-20 13:55 | 25.25662 | 55.35147 | 30 ft | 9 kts | 355° |
| 2026-04-20 13:55 | 25.25719 | 55.35175 | 31 ft | 10 kts | 31° |
| 2026-04-20 13:56 | 25.25787 | 55.35220 | 29 ft | 13 kts | 31° |
| 2026-04-20 13:56 | 25.25878 | 55.35280 | 26 ft | 16 kts | 31° |
| 2026-04-20 13:56 | 25.25966 | 55.35340 | 27 ft | 13 kts | 35° |
| 2026-04-20 13:56 | 25.26014 | 55.35419 | 27 ft | 13 kts | 79° |
| 2026-04-20 13:57 | 25.26002 | 55.35520 | 28 ft | 15 kts | 108° |
| 2026-04-20 13:57 | 25.25948 | 55.35631 | 28 ft | 18 kts | 121° |
| 2026-04-20 13:57 | 25.25878 | 55.35755 | 28 ft | 20 kts | 122° |
| 2026-04-20 13:57 | 25.25800 | 55.35893 | 28 ft | 21 kts | 122° |
| 2026-04-20 13:58 | 25.25731 | 55.36016 | 28 ft | 18 kts | 122° |
| 2026-04-20 13:58 | 25.25665 | 55.36134 | 29 ft | 18 kts | 122° |
| 2026-04-20 13:58 | 25.25599 | 55.36253 | 29 ft | 18 kts | 121° |
| 2026-04-20 13:58 | 25.25530 | 55.36371 | 29 ft | 18 kts | 122° |
| 2026-04-20 13:59 | 25.25466 | 55.36488 | 29 ft | 18 kts | 121° |
| 2026-04-20 13:59 | 25.25422 | 55.36568 | 29 ft | 18 kts | 121° |
| 2026-04-20 13:59 | 25.25356 | 55.36686 | 28 ft | 18 kts | 123° |
| 2026-04-20 13:59 | 25.25289 | 55.36802 | 29 ft | 18 kts | 121° |
| 2026-04-20 14:00 | 25.25222 | 55.36922 | 29 ft | 18 kts | 122° |
| 2026-04-20 14:00 | 25.25155 | 55.37039 | 29 ft | 18 kts | 122° |
| 2026-04-20 14:00 | 25.25089 | 55.37158 | 30 ft | 18 kts | 121° |
| 2026-04-20 14:00 | 25.25022 | 55.37277 | 30 ft | 18 kts | 121° |
| 2026-04-20 14:01 | 25.24955 | 55.37395 | 30 ft | 18 kts | 122° |
| 2026-04-20 14:01 | 25.24890 | 55.37513 | 30 ft | 18 kts | 121° |
| 2026-04-20 14:01 | 25.24823 | 55.37633 | 30 ft | 20 kts | 121° |
| 2026-04-20 14:01 | 25.24729 | 55.37798 | 38 ft | 26 kts | 122° |
| 2026-04-20 14:02 | 25.24671 | 55.37904 | 29 ft | 8 kts | 109° |
| 2026-04-20 14:02 | 25.24687 | 55.37962 | 30 ft | 8 kts | 44° |
| 2026-04-20 14:02 | 25.24735 | 55.37997 | 32 ft | 8 kts | 33° |
| 2026-04-20 14:02 | 25.24786 | 55.38028 | 35 ft | 8 kts | 13° |
| 2026-04-20 14:03 | 25.24835 | 55.37976 | 34 ft | 18 kts | 301° |
| 2026-04-20 14:03 | 25.25003 | 55.37673 | 35 ft | 88 kts | 301° |
| 2026-04-20 14:03 | 25.25485 | 55.36803 | 35 ft | 174 kts | 301° |
| 2026-04-20 14:03 | 25.26189 | 55.35533 | 566 ft | 197 kts | 302° |
| 2026-04-20 14:04 | 25.26896 | 55.34297 | 1643 ft | 188 kts | 303° |
| 2026-04-20 14:04 | 25.27618 | 55.33028 | 2170 ft | 202 kts | 303° |
| 2026-04-20 14:04 | 25.28374 | 55.31665 | 2746 ft | 212 kts | 302° |
| 2026-04-20 14:04 | 25.29187 | 55.30189 | 3054 ft | 238 kts | 303° |
| 2026-04-20 14:05 | 25.30087 | 55.28589 | 3626 ft | 248 kts | 305° |
| 2026-04-20 14:05 | 25.31092 | 55.26997 | 4005 ft | 255 kts | 307° |
| 2026-04-20 14:05 | 25.32144 | 55.25367 | 4011 ft | 262 kts | 307° |
| 2026-04-20 14:05 | 25.33201 | 55.23723 | 4013 ft | 261 kts | 307° |
| 2026-04-20 14:06 | 25.34244 | 55.22092 | 3972 ft | 262 kts | 306° |
| 2026-04-20 14:06 | 25.35291 | 55.20425 | 4001 ft | 265 kts | 302° |
| 2026-04-20 14:06 | 25.35771 | 55.18453 | 4265 ft | 273 kts | 270° |
| 2026-04-20 14:06 | 25.35658 | 55.16328 | 5003 ft | 278 kts | 268° |
| 2026-04-20 14:07 | 25.35554 | 55.14193 | 5963 ft | 277 kts | 269° |
| 2026-04-20 14:07 | 25.35468 | 55.12095 | 6817 ft | 279 kts | 269° |
| 2026-04-20 14:07 | 25.35389 | 55.09899 | 7661 ft | 282 kts | 269° |
| 2026-04-20 14:07 | 25.35318 | 55.07725 | 8494 ft | 284 kts | 269° |
| 2026-04-20 14:08 | 25.35251 | 55.05530 | 9327 ft | 287 kts | 269° |
| 2026-04-20 14:08 | 25.35186 | 55.03319 | 10125 ft | 290 kts | 270° |
| 2026-04-20 14:08 | 25.35121 | 55.01001 | 10663 ft | 307 kts | 270° |
| 2026-04-20 14:08 | 25.35054 | 54.98532 | 10874 ft | 335 kts | 270° |
| 2026-04-20 14:09 | 25.34980 | 54.95853 | 11074 ft | 362 kts | 270° |
| 2026-04-20 14:09 | 25.34948 | 54.93022 | 11663 ft | 374 kts | 274° |
| 2026-04-20 14:09 | 25.35230 | 54.90141 | 12528 ft | 379 kts | 281° |
| 2026-04-20 14:09 | 25.35790 | 54.87316 | 13519 ft | 380 kts | 288° |
| 2026-04-20 14:10 | 25.36587 | 54.84502 | 14408 ft | 383 kts | 289° |
| 2026-04-20 14:10 | 25.37425 | 54.81676 | 14831 ft | 388 kts | 289° |
| 2026-04-20 14:10 | 25.37982 | 54.79793 | 14817 ft | 391 kts | 289° |
| 2026-04-20 14:10 | 25.39091 | 54.75975 | 14838 ft | 391 kts | 288° |
| 2026-04-20 14:11 | 25.39648 | 54.74033 | 15269 ft | 394 kts | 288° |
| 2026-04-20 14:11 | 25.40476 | 54.71135 | 16166 ft | 396 kts | 288° |
| 2026-04-20 14:11 | 25.41315 | 54.68221 | 17063 ft | 400 kts | 288° |
| 2026-04-20 14:11 | 25.42197 | 54.65175 | 17921 ft | 405 kts | 288° |
| 2026-04-20 14:12 | 25.43033 | 54.62284 | 18612 ft | 410 kts | 288° |
| 2026-04-20 14:12 | 25.43921 | 54.59229 | 19407 ft | 412 kts | 288° |
| 2026-04-20 14:12 | 25.44813 | 54.56196 | 20223 ft | 414 kts | 288° |
| 2026-04-20 14:12 | 25.45710 | 54.53155 | 21013 ft | 416 kts | 288° |
| 2026-04-20 14:13 | 25.47707 | 54.46367 | 22671 ft | 423 kts | 287° |
| 2026-04-20 14:13 | 25.51386 | 54.33801 | 25071 ft | 436 kts | 287° |
| 2026-04-20 14:13 | 25.55021 | 54.21368 | 27088 ft | 451 kts | 287° |
| 2026-04-20 14:13 | 25.58985 | 54.07976 | 29087 ft | 462 kts | 287° |
| 2026-04-20 14:14 | 25.62944 | 53.94100 | 31057 ft | 463 kts | 287° |
| 2026-04-20 14:14 | 25.66810 | 53.80412 | 33246 ft | 453 kts | 287° |
| 2026-04-20 14:14 | 25.69477 | 53.70955 | 34516 ft | 448 kts | 288° |
| 2026-04-20 14:14 | 25.70396 | 53.67689 | 34711 ft | 437 kts | 287° |
| 2026-04-20 14:15 | 25.71294 | 53.64489 | 34953 ft | 433 kts | 287° |
| 2026-04-20 14:15 | 25.72202 | 53.61251 | 35206 ft | 433 kts | 287° |
| 2026-04-20 14:15 | 25.73100 | 53.58047 | 35450 ft | 433 kts | 287° |
| 2026-04-20 14:15 | 25.73986 | 53.54886 | 35693 ft | 427 kts | 288° |
| 2026-04-20 14:16 | 25.74865 | 53.51746 | 35834 ft | 428 kts | 288° |
| 2026-04-20 14:16 | 25.75754 | 53.48578 | 35836 ft | 430 kts | 288° |
| 2026-04-20 14:16 | 25.77544 | 53.42248 | 35829 ft | 429 kts | 288° |
| 2026-04-20 14:17 | 25.79328 | 53.35936 | 35831 ft | 427 kts | 287° |
| 2026-04-20 14:17 | 25.81098 | 53.29648 | 35826 ft | 425 kts | 287° |
| 2026-04-20 14:18 | 25.82859 | 53.23385 | 35827 ft | 425 kts | 287° |
| 2026-04-20 14:18 | 25.84745 | 53.17174 | 35830 ft | 425 kts | 292° |
| 2026-04-20 14:19 | 25.87187 | 53.11182 | 35830 ft | 426 kts | 293° |
| 2026-04-20 14:19 | 25.89646 | 53.05192 | 35832 ft | 426 kts | 293° |
| 2026-04-20 14:20 | 25.92091 | 52.99181 | 35831 ft | 426 kts | 293° |
| 2026-04-20 14:20 | 25.94527 | 52.93166 | 35832 ft | 426 kts | 293° |
| 2026-04-20 14:21 | 25.96961 | 52.87146 | 35831 ft | 426 kts | 292° |
| 2026-04-20 14:21 | 25.99392 | 52.81124 | 35828 ft | 426 kts | 292° |
| 2026-04-20 14:22 | 26.01818 | 52.75109 | 35828 ft | 426 kts | 292° |
| 2026-04-20 14:22 | 26.04410 | 52.69184 | 35838 ft | 426 kts | 295° |
| 2026-04-20 14:23 | 26.07110 | 52.63321 | 35827 ft | 425 kts | 295° |
| 2026-04-20 14:23 | 26.09785 | 52.57406 | 35832 ft | 424 kts | 295° |
| 2026-04-20 14:24 | 26.12424 | 52.51535 | 35829 ft | 424 kts | 295° |
| 2026-04-20 14:24 | 26.15082 | 52.45676 | 35829 ft | 424 kts | 295° |
| 2026-04-20 14:25 | 26.17736 | 52.39819 | 35827 ft | 423 kts | 295° |
| 2026-04-20 14:25 | 26.20384 | 52.33963 | 35831 ft | 423 kts | 295° |
| 2026-04-20 14:26 | 26.23013 | 52.28093 | 35833 ft | 422 kts | 294° |
| 2026-04-20 14:26 | 26.25556 | 52.22204 | 35832 ft | 422 kts | 294° |
| 2026-04-20 14:27 | 26.28093 | 52.16314 | 35832 ft | 421 kts | 294° |
| 2026-04-20 14:27 | 26.30638 | 52.10424 | 35830 ft | 421 kts | 294° |
| 2026-04-20 14:28 | 26.33178 | 52.04527 | 35831 ft | 421 kts | 293° |
| 2026-04-20 14:28 | 26.35698 | 51.98626 | 35834 ft | 421 kts | 293° |
| 2026-04-20 14:29 | 26.38109 | 51.92676 | 35832 ft | 420 kts | 289° |
| 2026-04-20 14:29 | 26.40114 | 51.86587 | 35836 ft | 421 kts | 289° |
| 2026-04-20 14:30 | 26.42163 | 51.80444 | 35835 ft | 422 kts | 289° |
| 2026-04-20 14:30 | 26.44236 | 51.74328 | 35838 ft | 422 kts | 289° |
| 2026-04-20 14:31 | 26.46313 | 51.68171 | 35835 ft | 423 kts | 289° |
| 2026-04-20 14:31 | 26.48401 | 51.62021 | 35836 ft | 424 kts | 289° |
| 2026-04-20 14:32 | 26.50111 | 51.56886 | 35834 ft | 424 kts | 288° |
| 2026-04-20 14:32 | 26.52157 | 51.50703 | 35837 ft | 425 kts | 288° |
| 2026-04-20 14:33 | 26.54209 | 51.44503 | 35835 ft | 425 kts | 288° |
| 2026-04-20 14:33 | 26.56260 | 51.38303 | 35836 ft | 425 kts | 288° |
| 2026-04-20 14:34 | 26.57727 | 51.33864 | 35839 ft | 425 kts | 288° |
| 2026-04-20 14:34 | 26.59777 | 51.27657 | 35838 ft | 425 kts | 288° |
| 2026-04-20 14:35 | 26.61842 | 51.21413 | 35840 ft | 425 kts | 288° |
| 2026-04-20 14:35 | 26.63894 | 51.15198 | 35840 ft | 425 kts | 288° |
| 2026-04-20 14:36 | 26.65969 | 51.08900 | 35839 ft | 425 kts | 288° |
| 2026-04-20 14:36 | 26.68012 | 51.02689 | 35841 ft | 425 kts | 288° |
| 2026-04-20 14:37 | 26.70032 | 50.96478 | 35842 ft | 425 kts | 288° |
| 2026-04-20 14:37 | 26.72025 | 50.90254 | 35843 ft | 425 kts | 288° |
| 2026-04-20 14:38 | 26.74006 | 50.84063 | 35845 ft | 425 kts | 287° |
| 2026-04-20 14:38 | 26.76002 | 50.77826 | 35845 ft | 425 kts | 287° |
| 2026-04-20 14:39 | 26.77997 | 50.71584 | 35852 ft | 425 kts | 287° |
| 2026-04-20 14:39 | 26.79989 | 50.65340 | 35848 ft | 425 kts | 287° |
| 2026-04-20 14:40 | 26.82076 | 50.59130 | 35853 ft | 426 kts | 288° |
| 2026-04-20 14:40 | 26.84207 | 50.52927 | 35854 ft | 426 kts | 288° |
| 2026-04-20 14:41 | 26.86306 | 50.46752 | 35856 ft | 426 kts | 289° |
| 2026-04-20 14:41 | 26.88933 | 50.40727 | 35857 ft | 430 kts | 297° |
| 2026-04-20 14:42 | 26.92126 | 50.34980 | 35866 ft | 431 kts | 298° |
| 2026-04-20 14:42 | 26.95290 | 50.29270 | 35866 ft | 431 kts | 297° |
| 2026-04-20 14:43 | 26.98441 | 50.23535 | 35867 ft | 431 kts | 297° |
| 2026-04-20 14:43 | 27.01593 | 50.17781 | 35872 ft | 430 kts | 297° |
| 2026-04-20 14:44 | 27.04800 | 50.12104 | 35883 ft | 432 kts | 301° |
| 2026-04-20 14:44 | 27.08633 | 50.06866 | 35880 ft | 435 kts | 306° |
| 2026-04-20 14:45 | 27.12590 | 50.01724 | 35885 ft | 435 kts | 305° |
| 2026-04-20 14:45 | 27.16529 | 49.96569 | 35877 ft | 434 kts | 305° |
| 2026-04-20 14:46 | 27.20460 | 49.91400 | 35878 ft | 434 kts | 305° |
| 2026-04-20 14:46 | 27.24376 | 49.86238 | 35880 ft | 434 kts | 305° |
| 2026-04-20 14:47 | 27.28298 | 49.81061 | 35884 ft | 434 kts | 305° |
| 2026-04-20 14:48 | 27.34176 | 49.73292 | 35888 ft | 434 kts | 305° |
| 2026-04-20 14:48 | 27.38113 | 49.68082 | 35895 ft | 434 kts | 304° |
| 2026-04-20 14:49 | 27.42047 | 49.62868 | 35884 ft | 434 kts | 304° |
| 2026-04-20 14:49 | 27.45959 | 49.57679 | 35889 ft | 434 kts | 304° |
| 2026-04-20 14:50 | 27.50217 | 49.52820 | 35889 ft | 441 kts | 314° |
| 2026-04-20 14:50 | 27.54253 | 49.49203 | 35897 ft | 443 kts | 315° |
| 2026-04-20 14:51 | 27.59096 | 49.44904 | 35900 ft | 443 kts | 315° |
| 2026-04-20 14:51 | 27.63927 | 49.40578 | 35895 ft | 442 kts | 314° |
| 2026-04-20 14:52 | 27.68738 | 49.36248 | 35897 ft | 442 kts | 314° |
| 2026-04-20 14:52 | 27.71155 | 49.34067 | 35510 ft | 447 kts | 314° |
| 2026-04-20 14:52 | 27.73600 | 49.31857 | 34835 ft | 451 kts | 315° |
| 2026-04-20 14:52 | 27.76064 | 49.29634 | 34049 ft | 453 kts | 315° |
| 2026-04-20 14:53 | 27.78538 | 49.27400 | 33138 ft | 456 kts | 315° |
| 2026-04-20 14:53 | 27.81018 | 49.25163 | 32519 ft | 454 kts | 315° |
| 2026-04-20 14:53 | 27.83480 | 49.22941 | 31882 ft | 452 kts | 315° |
| 2026-04-20 14:53 | 27.85930 | 49.20728 | 31279 ft | 450 kts | 315° |
| 2026-04-20 14:54 | 27.88466 | 49.18630 | 30680 ft | 453 kts | 320° |
| 2026-04-20 14:54 | 27.91171 | 49.16794 | 30080 ft | 454 kts | 323° |
| 2026-04-20 14:54 | 27.93915 | 49.15022 | 29402 ft | 453 kts | 324° |
| 2026-04-20 14:54 | 27.96650 | 49.13269 | 28777 ft | 451 kts | 324° |
| 2026-04-20 14:55 | 27.99370 | 49.11520 | 28169 ft | 448 kts | 323° |
| 2026-04-20 14:55 | 28.02063 | 49.09775 | 27570 ft | 445 kts | 323° |
| 2026-04-20 14:55 | 28.04738 | 49.08029 | 26989 ft | 442 kts | 323° |
| 2026-04-20 14:55 | 28.07391 | 49.06292 | 26408 ft | 439 kts | 323° |
| 2026-04-20 14:56 | 28.10017 | 49.04568 | 25831 ft | 436 kts | 323° |
| 2026-04-20 14:56 | 28.12632 | 49.02849 | 25236 ft | 434 kts | 323° |
| 2026-04-20 14:56 | 28.15239 | 49.01134 | 24637 ft | 432 kts | 323° |
| 2026-04-20 14:56 | 28.17834 | 48.99426 | 24060 ft | 430 kts | 323° |
| 2026-04-20 14:57 | 28.20451 | 48.97704 | 23487 ft | 428 kts | 323° |
| 2026-04-20 14:57 | 28.23013 | 48.96018 | 22833 ft | 425 kts | 323° |
| 2026-04-20 14:57 | 28.25556 | 48.94344 | 22257 ft | 421 kts | 323° |
| 2026-04-20 14:57 | 28.28058 | 48.92700 | 22027 ft | 409 kts | 323° |
| 2026-04-20 14:58 | 28.30476 | 48.91107 | 21907 ft | 396 kts | 323° |
| 2026-04-20 14:58 | 28.32849 | 48.89533 | 21918 ft | 394 kts | 323° |
| 2026-04-20 14:58 | 28.35215 | 48.87957 | 21909 ft | 395 kts | 323° |
| 2026-04-20 14:58 | 28.37580 | 48.86380 | 21650 ft | 393 kts | 323° |
| 2026-04-20 14:59 | 28.39931 | 48.84815 | 21173 ft | 390 kts | 322° |
| 2026-04-20 14:59 | 28.42264 | 48.83262 | 20680 ft | 388 kts | 322° |
| 2026-04-20 14:59 | 28.44583 | 48.81718 | 20186 ft | 385 kts | 322° |
| 2026-04-20 14:59 | 28.46886 | 48.80183 | 19712 ft | 383 kts | 322° |
| 2026-04-20 15:00 | 28.49209 | 48.78635 | 19231 ft | 380 kts | 322° |
| 2026-04-20 15:00 | 28.51483 | 48.77119 | 18776 ft | 378 kts | 322° |
| 2026-04-20 15:00 | 28.53740 | 48.75614 | 18329 ft | 375 kts | 322° |
| 2026-04-20 15:00 | 28.55913 | 48.74017 | 17818 ft | 367 kts | 316° |
| 2026-04-20 15:01 | 28.57824 | 48.72143 | 17324 ft | 360 kts | 309° |
| 2026-04-20 15:01 | 28.59538 | 48.70088 | 16808 ft | 354 kts | 303° |
| 2026-04-20 15:01 | 28.61037 | 48.67889 | 16228 ft | 352 kts | 301° |
| 2026-04-20 15:01 | 28.62508 | 48.65651 | 15700 ft | 352 kts | 301° |
| 2026-04-20 15:02 | 28.63962 | 48.63434 | 15340 ft | 347 kts | 301° |
| 2026-04-20 15:02 | 28.65400 | 48.61251 | 15236 ft | 334 kts | 301° |
| 2026-04-20 15:02 | 28.66770 | 48.59181 | 15164 ft | 321 kts | 301° |
| 2026-04-20 15:02 | 28.68088 | 48.57189 | 15090 ft | 309 kts | 301° |
| 2026-04-20 15:03 | 28.69356 | 48.55274 | 15020 ft | 297 kts | 301° |
| 2026-04-20 15:03 | 28.70575 | 48.53433 | 14930 ft | 287 kts | 300° |
| 2026-04-20 15:03 | 28.71786 | 48.51599 | 14441 ft | 291 kts | 301° |
| 2026-04-20 15:03 | 28.72988 | 48.49784 | 14273 ft | 283 kts | 301° |
| 2026-04-20 15:04 | 28.74164 | 48.47985 | 14095 ft | 276 kts | 300° |
| 2026-04-20 15:04 | 28.75278 | 48.46225 | 13755 ft | 275 kts | 300° |
| 2026-04-20 15:04 | 28.76412 | 48.44409 | 12970 ft | 289 kts | 300° |
| 2026-04-20 15:04 | 28.77617 | 48.42476 | 12187 ft | 301 kts | 300° |
| 2026-04-20 15:05 | 28.78855 | 48.40498 | 11475 ft | 311 kts | 301° |
| 2026-04-20 15:05 | 28.80128 | 48.38469 | 10816 ft | 318 kts | 301° |
| 2026-04-20 15:05 | 28.81425 | 48.36408 | 10257 ft | 321 kts | 301° |
| 2026-04-20 15:05 | 28.82732 | 48.34330 | 9707 ft | 324 kts | 302° |
| 2026-04-20 15:06 | 28.84050 | 48.32234 | 9107 ft | 326 kts | 302° |
| 2026-04-20 15:06 | 28.85378 | 48.30121 | 8509 ft | 328 kts | 302° |
| 2026-04-20 15:06 | 28.86713 | 48.27995 | 7924 ft | 330 kts | 302° |
| 2026-04-20 15:06 | 28.88050 | 48.25865 | 7355 ft | 331 kts | 302° |
| 2026-04-20 15:07 | 28.89379 | 48.23748 | 6801 ft | 321 kts | 302° |
| 2026-04-20 15:07 | 28.90669 | 48.21695 | 6230 ft | 307 kts | 302° |
| 2026-04-20 15:07 | 28.91879 | 48.19766 | 5658 ft | 292 kts | 301° |
| 2026-04-20 15:07 | 28.93041 | 48.17912 | 5171 ft | 282 kts | 300° |
| 2026-04-20 15:08 | 28.94151 | 48.16141 | 4972 ft | 263 kts | 300° |
| 2026-04-20 15:08 | 28.95179 | 48.14505 | 4797 ft | 248 kts | 299° |
| 2026-04-20 15:08 | 28.96181 | 48.12898 | 4474 ft | 250 kts | 298° |
| 2026-04-20 15:08 | 28.97230 | 48.11313 | 4093 ft | 252 kts | 309° |
| 2026-04-20 15:09 | 28.98563 | 48.10011 | 3825 ft | 255 kts | 316° |
| 2026-04-20 15:09 | 28.99995 | 48.08785 | 3515 ft | 255 kts | 317° |
| 2026-04-20 15:09 | 29.01418 | 48.07555 | 3192 ft | 257 kts | 317° |
| 2026-04-20 15:09 | 29.02833 | 48.06308 | 2851 ft | 257 kts | 317° |
| 2026-04-20 15:10 | 29.04222 | 48.05065 | 2751 ft | 251 kts | 316° |
| 2026-04-20 15:10 | 29.05590 | 48.03833 | 2706 ft | 250 kts | 317° |
| 2026-04-20 15:10 | 29.07005 | 48.02646 | 2703 ft | 257 kts | 324° |
| 2026-04-20 15:10 | 29.08658 | 48.01673 | 2377 ft | 270 kts | 333° |
| 2026-04-20 15:11 | 29.10360 | 48.00812 | 2025 ft | 264 kts | 336° |
| 2026-04-20 15:11 | 29.12021 | 47.99942 | 1687 ft | 263 kts | 336° |
| 2026-04-20 15:11 | 29.13659 | 47.99066 | 1342 ft | 254 kts | 336° |
| 2026-04-20 15:11 | 29.15178 | 47.98254 | 1045 ft | 226 kts | 338° |
| 2026-04-20 15:12 | 29.16561 | 47.97524 | 734 ft | 212 kts | 338° |
| 2026-04-20 15:12 | 29.17840 | 47.96854 | 530 ft | 191 kts | 337° |
| 2026-04-20 15:12 | 29.18978 | 47.96240 | 309 ft | 170 kts | 337° |
| 2026-04-20 15:12 | 29.19973 | 47.95713 | 218 ft | 143 kts | 338° |
| 2026-04-20 15:13 | 29.20762 | 47.95297 | 224 ft | 103 kts | 336° |
| 2026-04-20 15:13 | 29.21130 | 47.95098 | 220 ft | 69 kts | 335° |
| 2026-04-20 15:13 | 29.21326 | 47.95058 | 221 ft | 5 kts | 1° |
| 2026-04-20 15:13 | 29.21357 | 47.95059 | 223 ft | 5 kts | 1° |
| 2026-04-20 15:14 | 29.21401 | 47.95062 | 222 ft | 9 kts | 4° |
| 2026-04-20 15:14 | 29.21492 | 47.95071 | 224 ft | 17 kts | 5° |
| 2026-04-20 15:14 | 29.21584 | 47.95080 | 223 ft | 23 kts | 1° |
| 2026-04-20 15:14 | 29.21752 | 47.95011 | 224 ft | 28 kts | 334° |
| 2026-04-20 15:15 | 29.21940 | 47.94912 | 224 ft | 27 kts | 336° |
| 2026-04-20 15:15 | 29.22054 | 47.94985 | 219 ft | 21 kts | 66° |
| 2026-04-20 15:15 | 29.22126 | 47.95166 | 213 ft | 30 kts | 66° |
| 2026-04-20 15:15 | 29.22184 | 47.95325 | 207 ft | 35 kts | 68° |
| 2026-04-20 15:16 | 29.22305 | 47.95603 | 172 ft | 41 kts | 63° |
| 2026-04-20 15:16 | 29.22423 | 47.95890 | 164 ft | 30 kts | 65° |
| 2026-04-20 15:16 | 29.22511 | 47.96106 | 164 ft | 30 kts | 65° |
| 2026-04-20 15:16 | 29.22598 | 47.96323 | 163 ft | 30 kts | 65° |
| 2026-04-20 15:17 | 29.22670 | 47.96507 | 164 ft | 23 kts | 67° |
| 2026-04-20 15:17 | 29.22742 | 47.96597 | 166 ft | 15 kts | 355° |
| 2026-04-20 15:17 | 29.22838 | 47.96549 | 165 ft | 15 kts | 336° |
| 2026-04-20 15:17 | 29.22935 | 47.96497 | 164 ft | 15 kts | 334° |
| 2026-04-20 15:18 | 29.23012 | 47.96501 | 165 ft | 11 kts | 47° |
| 2026-04-20 15:18 | 29.23024 | 47.96529 | 167 ft | 0 kts | 66° |
| 2026-04-20 15:19 | 29.23031 | 47.96545 | 169 ft | 10 kts | 66° |
| 2026-04-20 15:20 | 29.23062 | 47.96624 | 178 ft | 11 kts | 65° |
| 2026-04-20 15:20 | 29.23099 | 47.96714 | 180 ft | 14 kts | 64° |
| 2026-04-20 15:20 | 29.23128 | 47.96783 | 171 ft | 0 kts | 65° |
| 2026-04-20 15:20 | 29.23136 | 47.96804 | 169 ft | 8 kts | 65° |
| 2026-04-20 15:21 | 29.23165 | 47.96854 | 165 ft | 7 kts | 36° |
| 2026-04-20 15:21 | 29.23223 | 47.96841 | 163 ft | 12 kts | 334° |
| 2026-04-20 15:21 | 29.23306 | 47.96797 | 162 ft | 13 kts | 334° |
| 2026-04-20 15:21 | 29.23320 | 47.96789 | 162 ft | 0 kts | 335° |
| 2026-04-20 15:22 | 29.23345 | 47.96776 | 162 ft | 9 kts | 336° |
| 2026-04-20 15:22 | 29.23409 | 47.96743 | 161 ft | 11 kts | 335° |
| 2026-04-20 15:22 | 29.23483 | 47.96703 | 160 ft | 13 kts | 334° |
| 2026-04-20 15:23 | 29.23565 | 47.96658 | 159 ft | 14 kts | 334° |
| 2026-04-20 15:23 | 29.23636 | 47.96624 | 158 ft | 7 kts | 351° |
| 2026-04-20 15:23 | 29.23671 | 47.96666 | 157 ft | 9 kts | 66° |
| 2026-04-20 15:23 | 29.23698 | 47.96734 | 156 ft | 10 kts | 65° |
| 2026-04-20 15:24 | 29.23727 | 47.96807 | 156 ft | 10 kts | 65° |
| 2026-04-20 15:24 | 29.23757 | 47.96880 | 156 ft | 10 kts | 64° |
| 2026-04-20 15:24 | 29.23785 | 47.96948 | 157 ft | 6 kts | 65° |
| 2026-04-20 15:24 | 29.23800 | 47.96989 | 158 ft | 6 kts | 75° |
| 2026-04-20 15:25 | 29.23800 | 47.97029 | 158 ft | 4 kts | 92° |
| 2026-04-20 15:25 | 29.23821 | 47.97055 | 159 ft | 5 kts | 28° |
| 2026-04-20 15:25 | 29.23851 | 47.97072 | 159 ft | 5 kts | 27° |
| 2026-04-20 15:25 | 29.23874 | 47.97085 | 159 ft | 1 kts | 25° |
| 2026-04-20 15:26 | 29.23882 | 47.97089 | 159 ft | 1 kts | 25° |